sensor_id;sensor_type;location;lat;lon;timestamp;temperature;humidity
11009;DHT22;5557;51.670;7.788;2023-12-20T00:00:30;7.00;99.90
11009;DHT22;5557;51.670;7.788;2023-12-20T00:02:57;6.90;99.90
11009;DHT22;5557;51.670;7.788;2023-12-20T00:05:24;6.90;99.90
11009;DHT22;5557;51.670;7.788;2023-12-20T00:07:51;6.90;99.90
11009;DHT22;5557;51.670;7.788;2023-12-20T00:10:18;6.90;99.90
11009;DHT22;5557;51.670;7.788;2023-12-20T00:12:46;6.90;99.90
11009;DHT22;5557;51.670;7.788;2023-12-20T00:15:13;6.90;99.90
11009;DHT22;5557;51.670;7.788;2023-12-20T00:17:40;6.90;99.90
11009;DHT22;5557;51.670;7.788;2023-12-20T00:20:08;6.90;99.90
11009;DHT22;5557;51.670;7.788;2023-12-20T00:22:35;6.80;99.90
11009;DHT22;5557;51.670;7.788;2023-12-20T00:25:02;6.80;99.90
11009;DHT22;5557;51.670;7.788;2023-12-20T00:27:29;6.80;99.90
11009;DHT22;5557;51.670;7.788;2023-12-20T00:29:56;6.80;99.90
11009;DHT22;5557;51.670;7.788;2023-12-20T00:32:23;6.70;99.90
11009;DHT22;5557;51.670;7.788;2023-12-20T00:34:51;6.70;99.90
11009;DHT22;5557;51.670;7.788;2023-12-20T00:37:18;6.70;99.90
11009;DHT22;5557;51.670;7.788;2023-12-20T00:39:45;6.60;99.90
11009;DHT22;5557;51.670;7.788;2023-12-20T00:42:12;6.60;99.90
11009;DHT22;5557;51.670;7.788;2023-12-20T00:44:39;6.50;99.90
11009;DHT22;5557;51.670;7.788;2023-12-20T00:47:06;6.50;99.90
11009;DHT22;5557;51.670;7.788;2023-12-20T00:49:32;6.50;99.90
11009;DHT22;5557;51.670;7.788;2023-12-20T00:52:00;6.50;99.90
11009;DHT22;5557;51.670;7.788;2023-12-20T00:54:27;6.50;99.90
11009;DHT22;5557;51.670;7.788;2023-12-20T00:56:53;6.50;99.90
11009;DHT22;5557;51.670;7.788;2023-12-20T00:59:20;6.40;99.90
11009;DHT22;5557;51.670;7.788;2023-12-20T01:01:47;6.40;99.90
11009;DHT22;5557;51.670;7.788;2023-12-20T01:04:14;6.40;99.90
11009;DHT22;5557;51.670;7.788;2023-12-20T01:06:42;6.40;99.90
11009;DHT22;5557;51.670;7.788;2023-12-20T01:09:09;6.40;99.90
11009;DHT22;5557;51.670;7.788;2023-12-20T01:11:36;6.40;99.90
11009;DHT22;5557;51.670;7.788;2023-12-20T01:14:03;6.40;99.90
11009;DHT22;5557;51.670;7.788;2023-12-20T01:16:30;6.40;99.90
11009;DHT22;5557;51.670;7.788;2023-12-20T01:18:57;6.50;99.90
11009;DHT22;5557;51.670;7.788;2023-12-20T01:21:24;6.50;99.90
11009;DHT22;5557;51.670;7.788;2023-12-20T01:23:51;6.50;99.90
11009;DHT22;5557;51.670;7.788;2023-12-20T01:26:18;6.50;99.90
11009;DHT22;5557;51.670;7.788;2023-12-20T01:28:45;6.50;99.90
11009;DHT22;5557;51.670;7.788;2023-12-20T01:31:12;6.50;99.90
11009;DHT22;5557;51.670;7.788;2023-12-20T01:33:39;6.50;99.90
11009;DHT22;5557;51.670;7.788;2023-12-20T01:36:06;6.40;99.90
11009;DHT22;5557;51.670;7.788;2023-12-20T01:38:33;6.30;99.90
11009;DHT22;5557;51.670;7.788;2023-12-20T01:41:00;6.30;99.90
11009;DHT22;5557;51.670;7.788;2023-12-20T01:43:27;6.20;99.90
11009;DHT22;5557;51.670;7.788;2023-12-20T01:45:57;6.20;99.90
11009;DHT22;5557;51.670;7.788;2023-12-20T01:48:25;6.10;99.90
11009;DHT22;5557;51.670;7.788;2023-12-20T01:50:54;6.10;99.90
11009;DHT22;5557;51.670;7.788;2023-12-20T01:53:24;6.00;99.90
11009;DHT22;5557;51.670;7.788;2023-12-20T01:55:54;6.00;99.90
11009;DHT22;5557;51.670;7.788;2023-12-20T01:58:22;5.90;99.90
11009;DHT22;5557;51.670;7.788;2023-12-20T02:00:50;5.90;99.90
11009;DHT22;5557;51.670;7.788;2023-12-20T02:03:18;5.80;99.90
11009;DHT22;5557;51.670;7.788;2023-12-20T02:05:45;5.80;99.90
11009;DHT22;5557;51.670;7.788;2023-12-20T02:08:13;5.70;99.90
11009;DHT22;5557;51.670;7.788;2023-12-20T02:10:40;5.70;99.90
11009;DHT22;5557;51.670;7.788;2023-12-20T02:13:08;5.70;99.90
11009;DHT22;5557;51.670;7.788;2023-12-20T02:15:35;5.70;99.90
11009;DHT22;5557;51.670;7.788;2023-12-20T02:18:05;5.60;99.90
11009;DHT22;5557;51.670;7.788;2023-12-20T02:20:32;5.60;99.90
11009;DHT22;5557;51.670;7.788;2023-12-20T02:22:59;5.60;99.90
11009;DHT22;5557;51.670;7.788;2023-12-20T02:25:26;5.50;99.90
11009;DHT22;5557;51.670;7.788;2023-12-20T02:27:53;5.60;99.90
11009;DHT22;5557;51.670;7.788;2023-12-20T02:30:21;5.60;99.90
11009;DHT22;5557;51.670;7.788;2023-12-20T02:32:49;5.70;99.90
11009;DHT22;5557;51.670;7.788;2023-12-20T02:35:16;5.60;99.90
11009;DHT22;5557;51.670;7.788;2023-12-20T02:37:43;5.60;99.90
11009;DHT22;5557;51.670;7.788;2023-12-20T02:40:11;5.70;99.90
11009;DHT22;5557;51.670;7.788;2023-12-20T02:42:38;5.70;99.90
11009;DHT22;5557;51.670;7.788;2023-12-20T02:45:06;5.70;99.90
11009;DHT22;5557;51.670;7.788;2023-12-20T02:47:33;5.70;99.90
11009;DHT22;5557;51.670;7.788;2023-12-20T02:50:00;5.70;99.90
11009;DHT22;5557;51.670;7.788;2023-12-20T02:52:28;5.70;99.90
11009;DHT22;5557;51.670;7.788;2023-12-20T02:54:55;5.70;99.90
11009;DHT22;5557;51.670;7.788;2023-12-20T02:57:22;5.70;99.90
11009;DHT22;5557;51.670;7.788;2023-12-20T02:59:49;5.70;99.90
11009;DHT22;5557;51.670;7.788;2023-12-20T03:02:16;5.80;99.90
11009;DHT22;5557;51.670;7.788;2023-12-20T03:04:43;5.90;99.90
11009;DHT22;5557;51.670;7.788;2023-12-20T03:07:10;5.90;99.90
11009;DHT22;5557;51.670;7.788;2023-12-20T03:09:38;5.90;99.90
11009;DHT22;5557;51.670;7.788;2023-12-20T03:12:25;6.00;99.90
11009;DHT22;5557;51.670;7.788;2023-12-20T03:14:52;6.00;99.90
11009;DHT22;5557;51.670;7.788;2023-12-20T03:17:19;6.00;99.90
11009;DHT22;5557;51.670;7.788;2023-12-20T03:19:47;6.00;99.90
11009;DHT22;5557;51.670;7.788;2023-12-20T03:22:14;6.00;99.90
11009;DHT22;5557;51.670;7.788;2023-12-20T03:24:41;6.00;99.90
11009;DHT22;5557;51.670;7.788;2023-12-20T03:27:08;6.00;99.90
11009;DHT22;5557;51.670;7.788;2023-12-20T03:29:35;6.00;99.90
11009;DHT22;5557;51.670;7.788;2023-12-20T03:32:02;6.00;99.90
11009;DHT22;5557;51.670;7.788;2023-12-20T03:34:30;6.00;99.90
11009;DHT22;5557;51.670;7.788;2023-12-20T03:36:57;6.00;99.90
11009;DHT22;5557;51.670;7.788;2023-12-20T03:39:24;6.00;99.90
11009;DHT22;5557;51.670;7.788;2023-12-20T03:41:51;5.90;99.90
11009;DHT22;5557;51.670;7.788;2023-12-20T03:44:18;5.90;99.90
11009;DHT22;5557;51.670;7.788;2023-12-20T03:46:45;5.80;99.90
11009;DHT22;5557;51.670;7.788;2023-12-20T03:49:12;5.90;99.90
11009;DHT22;5557;51.670;7.788;2023-12-20T03:51:39;5.90;99.90
11009;DHT22;5557;51.670;7.788;2023-12-20T03:54:06;5.90;99.90
11009;DHT22;5557;51.670;7.788;2023-12-20T03:56:33;6.00;99.90
11009;DHT22;5557;51.670;7.788;2023-12-20T03:59:00;6.00;99.90
11009;DHT22;5557;51.670;7.788;2023-12-20T04:01:27;6.00;99.90
11009;DHT22;5557;51.670;7.788;2023-12-20T04:03:54;6.00;99.90
11009;DHT22;5557;51.670;7.788;2023-12-20T04:06:21;6.00;99.90
11009;DHT22;5557;51.670;7.788;2023-12-20T04:08:48;5.90;99.90
11009;DHT22;5557;51.670;7.788;2023-12-20T04:11:15;5.90;99.90
11009;DHT22;5557;51.670;7.788;2023-12-20T04:13:42;5.90;99.90
11009;DHT22;5557;51.670;7.788;2023-12-20T04:16:08;5.80;99.90
11009;DHT22;5557;51.670;7.788;2023-12-20T04:18:36;5.80;99.90
11009;DHT22;5557;51.670;7.788;2023-12-20T04:21:03;5.70;99.90
11009;DHT22;5557;51.670;7.788;2023-12-20T04:23:30;5.70;99.90
11009;DHT22;5557;51.670;7.788;2023-12-20T04:25:57;5.60;99.90
11009;DHT22;5557;51.670;7.788;2023-12-20T04:28:24;5.60;99.90
11009;DHT22;5557;51.670;7.788;2023-12-20T04:30:52;5.60;99.90
11009;DHT22;5557;51.670;7.788;2023-12-20T04:33:19;5.70;99.90
11009;DHT22;5557;51.670;7.788;2023-12-20T04:35:46;5.70;99.90
11009;DHT22;5557;51.670;7.788;2023-12-20T04:38:13;5.70;99.90
11009;DHT22;5557;51.670;7.788;2023-12-20T04:40:40;5.80;99.90
11009;DHT22;5557;51.670;7.788;2023-12-20T04:43:07;5.70;99.90
11009;DHT22;5557;51.670;7.788;2023-12-20T04:45:35;5.70;99.90
11009;DHT22;5557;51.670;7.788;2023-12-20T04:48:03;5.70;99.90
11009;DHT22;5557;51.670;7.788;2023-12-20T04:50:31;5.70;99.90
11009;DHT22;5557;51.670;7.788;2023-12-20T04:52:58;5.70;99.90
11009;DHT22;5557;51.670;7.788;2023-12-20T04:55:24;5.70;99.90
11009;DHT22;5557;51.670;7.788;2023-12-20T04:57:51;5.80;99.90
11009;DHT22;5557;51.670;7.788;2023-12-20T05:00:18;5.80;99.90
11009;DHT22;5557;51.670;7.788;2023-12-20T05:02:45;5.80;99.90
11009;DHT22;5557;51.670;7.788;2023-12-20T05:05:12;5.80;99.90
11009;DHT22;5557;51.670;7.788;2023-12-20T05:07:41;5.90;99.90
11009;DHT22;5557;51.670;7.788;2023-12-20T05:10:09;5.90;99.90
11009;DHT22;5557;51.670;7.788;2023-12-20T05:12:36;6.00;99.90
11009;DHT22;5557;51.670;7.788;2023-12-20T05:15:05;6.00;99.90
11009;DHT22;5557;51.670;7.788;2023-12-20T05:17:32;6.00;99.90
11009;DHT22;5557;51.670;7.788;2023-12-20T05:19:59;6.00;99.90
11009;DHT22;5557;51.670;7.788;2023-12-20T05:22:27;6.00;99.90
11009;DHT22;5557;51.670;7.788;2023-12-20T05:24:54;6.00;99.90
11009;DHT22;5557;51.670;7.788;2023-12-20T05:27:21;6.00;99.90
11009;DHT22;5557;51.670;7.788;2023-12-20T05:29:48;6.00;99.90
11009;DHT22;5557;51.670;7.788;2023-12-20T05:32:17;6.00;99.90
11009;DHT22;5557;51.670;7.788;2023-12-20T05:34:44;6.00;99.90
11009;DHT22;5557;51.670;7.788;2023-12-20T05:37:11;6.00;99.90
11009;DHT22;5557;51.670;7.788;2023-12-20T05:39:38;6.00;99.90
11009;DHT22;5557;51.670;7.788;2023-12-20T05:42:05;6.00;99.90
11009;DHT22;5557;51.670;7.788;2023-12-20T05:44:32;5.90;99.90
11009;DHT22;5557;51.670;7.788;2023-12-20T05:46:59;5.80;99.90
11009;DHT22;5557;51.670;7.788;2023-12-20T05:49:26;5.80;99.90
11009;DHT22;5557;51.670;7.788;2023-12-20T05:51:53;5.80;99.90
11009;DHT22;5557;51.670;7.788;2023-12-20T05:54:20;5.80;99.90
11009;DHT22;5557;51.670;7.788;2023-12-20T05:56:48;5.80;99.90
11009;DHT22;5557;51.670;7.788;2023-12-20T05:59:15;5.80;99.90
11009;DHT22;5557;51.670;7.788;2023-12-20T06:01:42;5.90;99.90
11009;DHT22;5557;51.670;7.788;2023-12-20T06:04:09;5.90;99.90
11009;DHT22;5557;51.670;7.788;2023-12-20T06:06:43;5.90;99.90
11009;DHT22;5557;51.670;7.788;2023-12-20T06:09:11;6.00;99.90
11009;DHT22;5557;51.670;7.788;2023-12-20T06:11:38;6.00;99.90
11009;DHT22;5557;51.670;7.788;2023-12-20T06:14:05;6.00;99.90
11009;DHT22;5557;51.670;7.788;2023-12-20T06:16:32;6.00;99.90
11009;DHT22;5557;51.670;7.788;2023-12-20T06:18:59;6.00;99.90
11009;DHT22;5557;51.670;7.788;2023-12-20T06:21:26;6.00;99.90
11009;DHT22;5557;51.670;7.788;2023-12-20T06:23:53;6.00;99.90
11009;DHT22;5557;51.670;7.788;2023-12-20T06:26:20;6.00;99.90
11009;DHT22;5557;51.670;7.788;2023-12-20T06:28:47;6.10;99.90
11009;DHT22;5557;51.670;7.788;2023-12-20T06:31:14;6.10;99.90
11009;DHT22;5557;51.670;7.788;2023-12-20T06:33:43;6.10;99.90
11009;DHT22;5557;51.670;7.788;2023-12-20T06:36:13;6.10;99.90
11009;DHT22;5557;51.670;7.788;2023-12-20T06:38:40;6.10;99.90
11009;DHT22;5557;51.670;7.788;2023-12-20T06:41:10;6.10;99.90
11009;DHT22;5557;51.670;7.788;2023-12-20T06:43:39;6.10;99.90
11009;DHT22;5557;51.670;7.788;2023-12-20T06:46:15;6.10;99.90
11009;DHT22;5557;51.670;7.788;2023-12-20T06:48:44;6.10;99.90
11009;DHT22;5557;51.670;7.788;2023-12-20T06:51:15;6.10;99.90
11009;DHT22;5557;51.670;7.788;2023-12-20T06:53:43;6.10;99.90
11009;DHT22;5557;51.670;7.788;2023-12-20T06:56:11;6.10;99.90
11009;DHT22;5557;51.670;7.788;2023-12-20T06:58:44;6.10;99.90
11009;DHT22;5557;51.670;7.788;2023-12-20T07:01:15;6.10;99.90
11009;DHT22;5557;51.670;7.788;2023-12-20T07:03:42;6.10;99.90
11009;DHT22;5557;51.670;7.788;2023-12-20T07:06:09;6.10;99.90
11009;DHT22;5557;51.670;7.788;2023-12-20T07:08:36;6.10;99.90
11009;DHT22;5557;51.670;7.788;2023-12-20T07:11:03;6.10;99.90
11009;DHT22;5557;51.670;7.788;2023-12-20T07:13:30;6.10;99.90
11009;DHT22;5557;51.670;7.788;2023-12-20T07:15:58;6.10;99.90
11009;DHT22;5557;51.670;7.788;2023-12-20T07:18:25;6.10;99.90
11009;DHT22;5557;51.670;7.788;2023-12-20T07:20:52;6.10;99.90
11009;DHT22;5557;51.670;7.788;2023-12-20T07:23:20;6.10;99.90
11009;DHT22;5557;51.670;7.788;2023-12-20T07:25:48;6.20;99.90
11009;DHT22;5557;51.670;7.788;2023-12-20T07:28:15;6.20;99.90
11009;DHT22;5557;51.670;7.788;2023-12-20T07:30:42;6.20;99.90
11009;DHT22;5557;51.670;7.788;2023-12-20T07:33:13;6.10;99.90
11009;DHT22;5557;51.670;7.788;2023-12-20T07:35:41;6.10;99.90
11009;DHT22;5557;51.670;7.788;2023-12-20T07:38:08;6.20;99.90
11009;DHT22;5557;51.670;7.788;2023-12-20T07:40:35;6.20;99.90
11009;DHT22;5557;51.670;7.788;2023-12-20T07:43:02;6.20;99.00
11009;DHT22;5557;51.670;7.788;2023-12-20T07:45:29;6.20;97.60
11009;DHT22;5557;51.670;7.788;2023-12-20T07:47:56;6.20;97.00
11009;DHT22;5557;51.670;7.788;2023-12-20T07:50:23;6.20;96.40
11009;DHT22;5557;51.670;7.788;2023-12-20T07:52:50;6.20;95.90
11009;DHT22;5557;51.670;7.788;2023-12-20T07:55:17;6.30;95.60
11009;DHT22;5557;51.670;7.788;2023-12-20T07:57:44;6.30;94.00
11009;DHT22;5557;51.670;7.788;2023-12-20T08:00:12;6.30;94.50
11009;DHT22;5557;51.670;7.788;2023-12-20T08:02:39;6.30;93.30
11009;DHT22;5557;51.670;7.788;2023-12-20T08:05:06;6.30;92.40
11009;DHT22;5557;51.670;7.788;2023-12-20T08:07:33;6.30;91.50
11009;DHT22;5557;51.670;7.788;2023-12-20T08:10:01;6.30;91.70
11009;DHT22;5557;51.670;7.788;2023-12-20T08:12:28;6.30;91.20
11009;DHT22;5557;51.670;7.788;2023-12-20T08:14:55;6.30;91.50
11009;DHT22;5557;51.670;7.788;2023-12-20T08:17:23;6.30;91.00
11009;DHT22;5557;51.670;7.788;2023-12-20T08:19:51;6.30;91.40
11009;DHT22;5557;51.670;7.788;2023-12-20T08:22:18;6.40;91.00
11009;DHT22;5557;51.670;7.788;2023-12-20T08:24:45;6.40;90.50
11009;DHT22;5557;51.670;7.788;2023-12-20T08:27:12;6.40;88.90
11009;DHT22;5557;51.670;7.788;2023-12-20T08:29:39;6.40;88.60
11009;DHT22;5557;51.670;7.788;2023-12-20T08:32:06;6.40;88.10
11009;DHT22;5557;51.670;7.788;2023-12-20T08:34:33;6.40;87.10
11009;DHT22;5557;51.670;7.788;2023-12-20T08:37:01;6.40;86.00
11009;DHT22;5557;51.670;7.788;2023-12-20T08:39:28;6.50;87.10
11009;DHT22;5557;51.670;7.788;2023-12-20T08:41:56;6.50;88.30
11009;DHT22;5557;51.670;7.788;2023-12-20T08:44:23;6.50;87.80
11009;DHT22;5557;51.670;7.788;2023-12-20T08:46:50;6.50;88.00
11009;DHT22;5557;51.670;7.788;2023-12-20T08:49:18;6.50;89.20
11009;DHT22;5557;51.670;7.788;2023-12-20T08:51:45;6.50;88.50
11009;DHT22;5557;51.670;7.788;2023-12-20T08:54:12;6.50;89.80
11009;DHT22;5557;51.670;7.788;2023-12-20T08:56:40;6.50;90.10
11009;DHT22;5557;51.670;7.788;2023-12-20T08:59:07;6.50;88.70
11009;DHT22;5557;51.670;7.788;2023-12-20T09:01:34;6.50;89.30
11009;DHT22;5557;51.670;7.788;2023-12-20T09:04:01;6.50;89.80
11009;DHT22;5557;51.670;7.788;2023-12-20T09:06:28;6.50;90.00
11009;DHT22;5557;51.670;7.788;2023-12-20T09:08:55;6.50;89.70
11009;DHT22;5557;51.670;7.788;2023-12-20T09:11:22;6.50;90.40
11009;DHT22;5557;51.670;7.788;2023-12-20T09:13:50;6.60;90.60
11009;DHT22;5557;51.670;7.788;2023-12-20T09:16:17;6.60;92.10
11009;DHT22;5557;51.670;7.788;2023-12-20T09:18:44;6.60;91.70
11009;DHT22;5557;51.670;7.788;2023-12-20T09:21:11;6.60;92.00
11009;DHT22;5557;51.670;7.788;2023-12-20T09:23:39;6.60;91.50
11009;DHT22;5557;51.670;7.788;2023-12-20T09:26:06;6.60;90.90
11009;DHT22;5557;51.670;7.788;2023-12-20T09:28:33;6.60;90.70
11009;DHT22;5557;51.670;7.788;2023-12-20T09:31:06;6.70;89.90
11009;DHT22;5557;51.670;7.788;2023-12-20T09:33:34;6.70;88.80
11009;DHT22;5557;51.670;7.788;2023-12-20T09:36:01;6.70;87.60
11009;DHT22;5557;51.670;7.788;2023-12-20T09:38:28;6.70;86.00
11009;DHT22;5557;51.670;7.788;2023-12-20T09:40:55;6.70;83.60
11009;DHT22;5557;51.670;7.788;2023-12-20T09:43:24;6.70;83.00
11009;DHT22;5557;51.670;7.788;2023-12-20T09:45:53;6.80;84.10
11009;DHT22;5557;51.670;7.788;2023-12-20T09:48:21;6.80;83.60
11009;DHT22;5557;51.670;7.788;2023-12-20T09:50:48;6.80;82.80
11009;DHT22;5557;51.670;7.788;2023-12-20T09:53:20;6.90;79.90
11009;DHT22;5557;51.670;7.788;2023-12-20T09:55:50;6.90;79.50
11009;DHT22;5557;51.670;7.788;2023-12-20T09:58:17;6.90;83.50
11009;DHT22;5557;51.670;7.788;2023-12-20T10:00:45;6.90;86.10
11009;DHT22;5557;51.670;7.788;2023-12-20T10:03:13;6.90;85.40
11009;DHT22;5557;51.670;7.788;2023-12-20T10:05:44;6.90;86.10
11009;DHT22;5557;51.670;7.788;2023-12-20T10:08:12;7.00;88.80
11009;DHT22;5557;51.670;7.788;2023-12-20T10:10:39;7.00;88.20
11009;DHT22;5557;51.670;7.788;2023-12-20T10:13:14;7.00;88.50
11009;DHT22;5557;51.670;7.788;2023-12-20T10:15:42;7.00;90.00
11009;DHT22;5557;51.670;7.788;2023-12-20T10:18:09;7.00;91.40
11009;DHT22;5557;51.670;7.788;2023-12-20T10:20:37;6.90;90.70
11009;DHT22;5557;51.670;7.788;2023-12-20T10:23:04;6.90;90.90
11009;DHT22;5557;51.670;7.788;2023-12-20T10:25:31;6.90;90.00
11009;DHT22;5557;51.670;7.788;2023-12-20T10:28:15;6.90;90.30
11009;DHT22;5557;51.670;7.788;2023-12-20T10:30:46;6.90;90.20
11009;DHT22;5557;51.670;7.788;2023-12-20T10:33:14;6.90;90.30
11009;DHT22;5557;51.670;7.788;2023-12-20T10:35:50;6.90;87.80
11009;DHT22;5557;51.670;7.788;2023-12-20T10:38:17;6.90;87.50
11009;DHT22;5557;51.670;7.788;2023-12-20T10:40:49;6.90;83.50
11009;DHT22;5557;51.670;7.788;2023-12-20T10:43:18;6.90;82.50
11009;DHT22;5557;51.670;7.788;2023-12-20T10:45:46;7.00;82.80
11009;DHT22;5557;51.670;7.788;2023-12-20T10:48:13;7.00;81.30
11009;DHT22;5557;51.670;7.788;2023-12-20T10:50:41;7.00;80.80
11009;DHT22;5557;51.670;7.788;2023-12-20T10:53:08;7.00;79.50
11009;DHT22;5557;51.670;7.788;2023-12-20T10:55:35;7.00;80.00
11009;DHT22;5557;51.670;7.788;2023-12-20T10:58:07;7.00;81.30
11009;DHT22;5557;51.670;7.788;2023-12-20T11:00:41;7.00;83.60
11009;DHT22;5557;51.670;7.788;2023-12-20T11:03:11;7.10;85.20
11009;DHT22;5557;51.670;7.788;2023-12-20T11:09:34;7.10;81.10
11009;DHT22;5557;51.670;7.788;2023-12-20T11:14:25;7.20;78.50
11009;DHT22;5557;51.670;7.788;2023-12-20T11:17:14;7.20;79.30
11009;DHT22;5557;51.670;7.788;2023-12-20T11:20:04;7.20;78.70
11009;DHT22;5557;51.670;7.788;2023-12-20T11:22:32;7.20;80.00
11009;DHT22;5557;51.670;7.788;2023-12-20T11:25:08;7.20;81.80
11009;DHT22;5557;51.670;7.788;2023-12-20T11:27:42;7.20;81.90
11009;DHT22;5557;51.670;7.788;2023-12-20T11:30:15;7.20;81.70
11009;DHT22;5557;51.670;7.788;2023-12-20T11:32:46;7.20;80.50
11009;DHT22;5557;51.670;7.788;2023-12-20T11:35:18;7.30;79.20
11009;DHT22;5557;51.670;7.788;2023-12-20T11:37:48;7.30;76.40
11009;DHT22;5557;51.670;7.788;2023-12-20T11:40:18;7.30;76.80
11009;DHT22;5557;51.670;7.788;2023-12-20T11:42:49;7.30;75.40
11009;DHT22;5557;51.670;7.788;2023-12-20T11:45:21;7.30;77.50
11009;DHT22;5557;51.670;7.788;2023-12-20T11:47:50;7.30;82.60
11009;DHT22;5557;51.670;7.788;2023-12-20T11:50:18;7.20;89.20
11009;DHT22;5557;51.670;7.788;2023-12-20T11:52:46;7.20;91.60
11009;DHT22;5557;51.670;7.788;2023-12-20T11:55:13;7.10;92.70
11009;DHT22;5557;51.670;7.788;2023-12-20T11:57:41;7.10;93.90
11009;DHT22;5557;51.670;7.788;2023-12-20T12:00:09;7.20;92.40
11009;DHT22;5557;51.670;7.788;2023-12-20T12:02:39;7.30;91.50
11009;DHT22;5557;51.670;7.788;2023-12-20T12:05:07;7.50;90.60
11009;DHT22;5557;51.670;7.788;2023-12-20T12:07:35;7.70;81.90
11009;DHT22;5557;51.670;7.788;2023-12-20T12:10:05;7.80;75.10
11009;DHT22;5557;51.670;7.788;2023-12-20T12:12:32;8.00;69.40
11009;DHT22;5557;51.670;7.788;2023-12-20T12:14:59;8.10;64.30
11009;DHT22;5557;51.670;7.788;2023-12-20T12:17:28;8.00;57.00
11009;DHT22;5557;51.670;7.788;2023-12-20T12:20:05;8.00;55.70
11009;DHT22;5557;51.670;7.788;2023-12-20T12:22:34;7.90;57.90
11009;DHT22;5557;51.670;7.788;2023-12-20T12:25:10;7.80;57.10
11009;DHT22;5557;51.670;7.788;2023-12-20T12:27:41;7.70;60.10
11009;DHT22;5557;51.670;7.788;2023-12-20T12:30:09;7.70;65.80
11009;DHT22;5557;51.670;7.788;2023-12-20T12:32:40;7.80;66.20
11009;DHT22;5557;51.670;7.788;2023-12-20T12:35:09;7.90;66.40
11009;DHT22;5557;51.670;7.788;2023-12-20T12:37:38;7.90;63.60
11009;DHT22;5557;51.670;7.788;2023-12-20T12:40:13;7.90;63.50
11009;DHT22;5557;51.670;7.788;2023-12-20T12:42:44;7.90;62.90
11009;DHT22;5557;51.670;7.788;2023-12-20T12:45:12;7.80;65.60
11009;DHT22;5557;51.670;7.788;2023-12-20T12:47:46;7.70;65.20
11009;DHT22;5557;51.670;7.788;2023-12-20T12:50:13;7.50;66.70
11009;DHT22;5557;51.670;7.788;2023-12-20T12:52:41;7.40;70.40
11009;DHT22;5557;51.670;7.788;2023-12-20T12:55:08;7.30;76.80
11009;DHT22;5557;51.670;7.788;2023-12-20T12:57:35;7.30;81.90
11009;DHT22;5557;51.670;7.788;2023-12-20T13:00:02;7.30;85.70
11009;DHT22;5557;51.670;7.788;2023-12-20T13:02:30;7.30;89.20
11009;DHT22;5557;51.670;7.788;2023-12-20T13:04:57;7.30;90.80
11009;DHT22;5557;51.670;7.788;2023-12-20T13:07:26;7.40;90.30
11009;DHT22;5557;51.670;7.788;2023-12-20T13:09:53;7.40;88.50
11009;DHT22;5557;51.670;7.788;2023-12-20T13:12:23;7.50;85.60
11009;DHT22;5557;51.670;7.788;2023-12-20T13:14:51;7.50;80.30
11009;DHT22;5557;51.670;7.788;2023-12-20T13:17:18;7.60;78.80
11009;DHT22;5557;51.670;7.788;2023-12-20T13:19:45;7.60;75.70
11009;DHT22;5557;51.670;7.788;2023-12-20T13:22:14;7.60;74.30
11009;DHT22;5557;51.670;7.788;2023-12-20T13:24:41;7.60;72.70
11009;DHT22;5557;51.670;7.788;2023-12-20T13:27:10;7.60;71.80
11009;DHT22;5557;51.670;7.788;2023-12-20T13:29:37;7.60;70.40
11009;DHT22;5557;51.670;7.788;2023-12-20T13:32:06;7.60;72.50
11009;DHT22;5557;51.670;7.788;2023-12-20T13:34:34;7.60;71.90
11009;DHT22;5557;51.670;7.788;2023-12-20T13:37:05;7.60;72.60
11009;DHT22;5557;51.670;7.788;2023-12-20T13:39:33;7.60;72.80
11009;DHT22;5557;51.670;7.788;2023-12-20T13:42:03;7.60;71.30
11009;DHT22;5557;51.670;7.788;2023-12-20T13:44:30;7.60;70.20
11009;DHT22;5557;51.670;7.788;2023-12-20T13:46:57;7.60;68.60
11009;DHT22;5557;51.670;7.788;2023-12-20T13:49:27;7.60;67.50
11009;DHT22;5557;51.670;7.788;2023-12-20T13:51:55;7.60;68.20
11009;DHT22;5557;51.670;7.788;2023-12-20T13:54:24;7.60;68.10
11009;DHT22;5557;51.670;7.788;2023-12-20T13:56:51;7.60;67.60
11009;DHT22;5557;51.670;7.788;2023-12-20T13:59:38;7.60;68.00
11009;DHT22;5557;51.670;7.788;2023-12-20T14:02:05;7.60;65.70
11009;DHT22;5557;51.670;7.788;2023-12-20T14:04:32;7.60;64.10
11009;DHT22;5557;51.670;7.788;2023-12-20T14:07:09;7.60;62.80
11009;DHT22;5557;51.670;7.788;2023-12-20T14:09:40;7.60;63.10
11009;DHT22;5557;51.670;7.788;2023-12-20T14:12:13;7.50;65.10
11009;DHT22;5557;51.670;7.788;2023-12-20T14:14:42;7.50;65.30
11009;DHT22;5557;51.670;7.788;2023-12-20T14:17:12;7.50;67.50
11009;DHT22;5557;51.670;7.788;2023-12-20T14:19:40;7.40;68.90
11009;DHT22;5557;51.670;7.788;2023-12-20T14:22:07;7.40;69.90
11009;DHT22;5557;51.670;7.788;2023-12-20T14:24:35;7.40;72.80
11009;DHT22;5557;51.670;7.788;2023-12-20T14:27:03;7.30;75.70
11009;DHT22;5557;51.670;7.788;2023-12-20T14:29:31;7.30;76.20
11009;DHT22;5557;51.670;7.788;2023-12-20T14:31:59;7.30;78.20
11009;DHT22;5557;51.670;7.788;2023-12-20T14:34:30;7.30;79.70
11009;DHT22;5557;51.670;7.788;2023-12-20T14:37:00;7.30;79.30
11009;DHT22;5557;51.670;7.788;2023-12-20T14:39:27;7.30;79.80
11009;DHT22;5557;51.670;7.788;2023-12-20T14:41:55;7.40;79.50
11009;DHT22;5557;51.670;7.788;2023-12-20T14:44:22;7.40;79.00
11009;DHT22;5557;51.670;7.788;2023-12-20T14:46:51;7.40;79.60
11009;DHT22;5557;51.670;7.788;2023-12-20T14:49:20;7.40;81.00
11009;DHT22;5557;51.670;7.788;2023-12-20T14:51:49;7.40;84.20
11009;DHT22;5557;51.670;7.788;2023-12-20T14:54:16;7.40;85.60
11009;DHT22;5557;51.670;7.788;2023-12-20T14:56:43;7.40;87.60
11009;DHT22;5557;51.670;7.788;2023-12-20T14:59:11;7.30;90.30
11009;DHT22;5557;51.670;7.788;2023-12-20T15:01:40;7.30;91.10
11009;DHT22;5557;51.670;7.788;2023-12-20T15:04:08;7.30;92.00
11009;DHT22;5557;51.670;7.788;2023-12-20T15:06:35;7.30;93.20
11009;DHT22;5557;51.670;7.788;2023-12-20T15:09:03;7.30;94.20
11009;DHT22;5557;51.670;7.788;2023-12-20T15:11:32;7.30;95.60
11009;DHT22;5557;51.670;7.788;2023-12-20T15:14:01;7.20;97.00
11009;DHT22;5557;51.670;7.788;2023-12-20T15:16:30;7.20;97.50
11009;DHT22;5557;51.670;7.788;2023-12-20T15:18:59;7.20;98.40
11009;DHT22;5557;51.670;7.788;2023-12-20T15:21:28;7.20;99.20
11009;DHT22;5557;51.670;7.788;2023-12-20T15:24:02;7.20;99.80
11009;DHT22;5557;51.670;7.788;2023-12-20T15:26:33;7.20;99.90
11009;DHT22;5557;51.670;7.788;2023-12-20T15:29:00;7.10;99.90
11009;DHT22;5557;51.670;7.788;2023-12-20T15:31:29;7.10;99.90
11009;DHT22;5557;51.670;7.788;2023-12-20T15:34:00;7.10;99.90
11009;DHT22;5557;51.670;7.788;2023-12-20T15:36:28;7.10;99.90
11009;DHT22;5557;51.670;7.788;2023-12-20T15:39:10;7.00;99.90
11009;DHT22;5557;51.670;7.788;2023-12-20T15:41:40;7.00;99.90
11009;DHT22;5557;51.670;7.788;2023-12-20T15:44:08;7.00;99.90
11009;DHT22;5557;51.670;7.788;2023-12-20T15:46:38;7.00;99.90
11009;DHT22;5557;51.670;7.788;2023-12-20T15:49:05;7.00;99.90
11009;DHT22;5557;51.670;7.788;2023-12-20T15:51:38;7.00;99.90
11009;DHT22;5557;51.670;7.788;2023-12-20T15:54:05;7.00;99.90
11009;DHT22;5557;51.670;7.788;2023-12-20T15:56:35;7.00;99.90
11009;DHT22;5557;51.670;7.788;2023-12-20T15:59:05;7.00;99.90
11009;DHT22;5557;51.670;7.788;2023-12-20T16:01:32;7.00;99.90
11009;DHT22;5557;51.670;7.788;2023-12-20T16:04:00;7.10;99.90
11009;DHT22;5557;51.670;7.788;2023-12-20T16:06:41;7.10;99.90
11009;DHT22;5557;51.670;7.788;2023-12-20T16:09:10;7.10;99.90
11009;DHT22;5557;51.670;7.788;2023-12-20T16:11:39;7.10;99.90
11009;DHT22;5557;51.670;7.788;2023-12-20T16:14:11;7.10;99.90